Western Grove, Arkansas
Current Conditions -  °F | °C
As of 5:53 PM on Friday 19 Dec 2014 (Local Time) from KHRO Reporting Station
Moderate Fog Moderate Fog  
Wind Chill: 32°   Ceiling: 200
Heat Index: 37°   Visibility: 0.25mi
Dew Point: 37°   Wind: 6mph
Humidity: 100%   Direction: 100°E
Pressure: 30.19"   Gusts: NA
Location:  36.1°N, 92.95°W
Report Text: KHRO 192353Z AUTO 10005KT 1/4SM FG VV002 03/03 A3019 RMK AO2 SLP230 60001 T00280028 10033 20028 53002
Loading
Personal Weather Stations






























Interactive Weather Map New forecast layout! Learn more

10-Day Weather Forecast

Advertisements
Track Severe Weather on mobile